Woodbine, Iowa
Current Conditions -  °F | °C
As of 2:15 PM on Monday 24 Nov 2014 (Local Time) from KHNR Reporting Station
Overcast Overcast  
Wind Chill: 15°   Ceiling: 2300
Heat Index: 28°   Visibility: 10mi
Dew Point: 19°   Wind: 22mph
Humidity: 69%   Direction: 310°NW
Pressure: 29.79"   Gusts: 32mph
Location:  41.74°N, 95.7°W
Report Text: KHNR 242015Z AUTO 31019G28KT 10SM OVC023 M02/M07 A2979 RMK AO2
Loading
Personal Weather Stations






























Interactive Weather Map New forecast layout! Learn more

10-Day Weather Forecast

Advertisements
Track Severe Weather on mobile